Terminal Aerodrome Forecast
Issued by NWS Chicago, IL

Home | Current Version | Previous Version | Text Only | Print | Product List | Glossary On
Versions: 1 2 3 4 5 6 7 8 9 10 11 12 13 14 15 16 17 18 19 20 21 22
005
FTUS43 KLOT 291748
TAFRFD
TAF
KRFD 291748Z 2918/3018 02016G24KT P6SM BKN035
      TEMPO 2918/2922 BKN030
     FM300030 03011KT P6SM BKN025
     FM300500 03010KT P6SM VCSH BKN015
     FM301400 04013G21KT P6SM VCSH OVC008=

USA.gov is the U.S. government's official web portal to all federal, state and local government web resources and services.